ESSV Airport Information

Runway Information
Runway 03 Length 6562 ft width 148 ft
Elevation 140 ft Threshold 0 ft Heading 21
Runway 21 Length 6562 ft Width 148 ft
Elevation 136 ft Threshold 0 ft Heading 201
Runway 10 Length 3611 ft width 131 ft
Elevation 142 ft Threshold 0 ft Heading 101
Runway 28 Length 3611 ft Width 131 ft
Elevation 164 ft Threshold 0 ft Heading 281
Airport Frequencies
Type ARR Name CON Frequency 126.15 MHZ
Type TWR Name TWR Frequency 120.3 MHZ
Airport Navaids
Type VOR-DME Name Visby Frequency 115100 KHZ
Airport Weather Information & NOTAM
ADDS - METARS form results

(0212 UTC 19 September 2021)
Data provider http://aviationweather.gov/metar/data/
 
METAR text: ESSV 190150Z AUTO 03007KT 9999 OVC041/// 09/05 Q1022
Conditions at: ESSV (VISBY AIRPORT , SE) observed 0150 UTC 19 September 2021
Temperature: 9.0°C (48°F)
Dewpoint: 5.0°C (41°F) [RH = 76%]
Pressure (altimeter): 30.18 inches Hg (1022.0 mb)
Winds: from the NNE (30 degrees) at 8 MPH (7 knots; 3.6 m/s)
Visibility: 6 or more miles (10+ km)
Ceiling: 4100 feet AGL
Clouds: overcast cloud deck at 4100 feet AGL
Weather: no significant weather observed at this time

METAR text: ESSV 190120Z AUTO 05007KT 9999 OVC042/// 09/05 Q1022
Conditions at: ESSV (VISBY AIRPORT , SE) observed 0120 UTC 19 September 2021
Temperature: 9.0°C (48°F)
Dewpoint: 5.0°C (41°F) [RH = 76%]
Pressure (altimeter): 30.18 inches Hg (1022.0 mb)
Winds: from the NE (50 degrees) at 8 MPH (7 knots; 3.6 m/s)
Visibility: 6 or more miles (10+ km)
Ceiling: 4200 feet AGL
Clouds: overcast cloud deck at 4200 feet AGL
Weather: no significant weather observed at this time

Forecast for: ESSV (VISBY AIRPORT , SE)
Text: TAF ESSV 181430Z 1815/1819 05012KT 9999 BKN040
Forecast period: 1500 to 1900 UTC 18 September 2021
Forecast type: FROM: standard forecast or significant change
Winds: from the NE (50 degrees) at 14 MPH (12 knots; 6.2 m/s)
Visibility: 6 or more miles (10+ km)
Ceiling: 4000 feet AGL
Clouds: broken clouds at 4000 feet AGL
Weather: no significant weather forecast for this period